createdAt,value
2019-01-18T00:00:00.195Z,420.65
2019-01-18T00:01:00.132Z,420.61
2019-01-18T00:02:00.106Z,420.31
2019-01-18T00:03:00.091Z,420.55
2019-01-18T00:04:00.082Z,420.46
2019-01-18T00:05:00.182Z,420.41
2019-01-18T00:06:00.089Z,420.23
2019-01-18T00:07:00.058Z,420.43
2019-01-18T00:08:00.034Z,420.44
2019-01-18T00:09:00.023Z,420.48
2019-01-18T00:10:00.026Z,420.71
2019-01-18T00:11:00.021Z,420.36
2019-01-18T00:11:59.995Z,420.33
2019-01-18T00:12:59.985Z,420.36
2019-01-18T00:13:59.966Z,420.53
2019-01-18T00:14:59.954Z,420.30
2019-01-18T00:15:59.973Z,420.56
2019-01-18T00:16:59.938Z,420.48
2019-01-18T00:17:59.934Z,420.30
2019-01-18T00:18:59.909Z,420.33
2019-01-18T00:19:59.900Z,420.33
2019-01-18T00:20:59.905Z,420.23
2019-01-18T00:21:59.916Z,420.46
2019-01-18T00:22:59.867Z,420.47
2019-01-18T00:23:59.871Z,420.48
2019-01-18T00:24:59.843Z,420.45
2019-01-18T00:25:59.849Z,420.49
2019-01-18T00:26:59.823Z,420.54
2019-01-18T00:27:59.831Z,420.55
2019-01-18T00:28:59.803Z,420.77
2019-01-18T00:29:59.807Z,420.72
2019-01-18T00:30:59.813Z,420.65
2019-01-18T00:31:59.762Z,420.52
2019-01-18T00:32:59.758Z,420.51
2019-01-18T00:33:59.763Z,420.71
2019-01-18T00:34:59.730Z,420.92
2019-01-18T00:35:59.729Z,420.54
2019-01-18T00:36:59.739Z,420.89
2019-01-18T00:37:59.707Z,420.69
2019-01-18T00:38:59.693Z,420.81
2019-01-18T00:39:59.678Z,420.64
2019-01-18T00:40:59.673Z,420.65
2019-01-18T00:41:59.693Z,420.56
2019-01-18T00:42:59.643Z,420.73
2019-01-18T00:43:59.641Z,420.62
2019-01-18T00:44:59.640Z,420.70
2019-01-18T00:45:59.617Z,420.43
2019-01-18T00:46:59.651Z,420.30
2019-01-18T00:47:59.601Z,420.41
2019-01-18T00:48:59.589Z,420.62
2019-01-18T00:49:59.579Z,420.55
2019-01-18T00:50:59.569Z,420.66
2019-01-18T00:51:59.563Z,420.56
2019-01-18T00:52:59.538Z,420.34
2019-01-18T00:53:59.551Z,420.71
2019-01-18T00:54:59.517Z,420.53
2019-01-18T00:55:59.516Z,420.42
2019-01-18T00:56:59.512Z,420.59
2019-01-18T00:57:59.479Z,420.65
2019-01-18T00:58:59.470Z,420.60
2019-01-18T00:59:59.455Z,420.90
2019-01-18T01:00:59.463Z,420.77
2019-01-18T01:01:59.472Z,420.40
2019-01-18T01:02:59.433Z,420.72
2019-01-18T01:03:59.416Z,420.38
2019-01-18T01:04:59.422Z,420.65
2019-01-18T01:05:59.389Z,420.54
2019-01-18T01:06:59.394Z,420.56
2019-01-18T01:07:59.373Z,420.55
2019-01-18T01:08:59.365Z,420.59
2019-01-18T01:09:59.349Z,420.55
2019-01-18T01:10:59.334Z,420.35
2019-01-18T01:11:59.351Z,420.53
2019-01-18T01:12:59.324Z,420.74
2019-01-18T01:13:59.310Z,420.54
2019-01-18T01:14:59.303Z,420.41
2019-01-18T01:15:59.288Z,420.52
2019-01-18T01:16:59.284Z,420.51
2019-01-18T01:17:59.275Z,420.68
2019-01-18T01:18:59.257Z,420.21
2019-01-18T01:19:59.239Z,420.53
2019-01-18T01:20:59.247Z,420.31
2019-01-18T01:21:59.218Z,420.18
2019-01-18T01:22:59.222Z,420.53
2019-01-18T01:23:59.202Z,420.09
2019-01-18T01:24:59.186Z,420.07
2019-01-18T01:25:59.172Z,419.98
2019-01-18T01:26:59.168Z,419.96
2019-01-18T01:27:59.168Z,420.02
2019-01-18T01:28:59.154Z,419.65
2019-01-18T01:29:59.123Z,419.69
2019-01-18T01:30:59.113Z,419.88
2019-01-18T01:31:59.113Z,419.60
2019-01-18T01:32:59.127Z,419.82
2019-01-18T01:33:59.084Z,419.83
2019-01-18T01:34:59.067Z,419.88
2019-01-18T01:35:59.073Z,419.76
2019-01-18T01:36:59.051Z,419.58
2019-01-18T01:37:59.083Z,419.47
2019-01-18T01:38:59.032Z,419.99
2019-01-18T01:39:59.022Z,419.60
2019-01-18T01:40:59.003Z,419.70
2019-01-18T01:41:59.011Z,419.91
2019-01-18T01:42:58.999Z,419.92
2019-01-18T01:43:58.983Z,420.02
2019-01-18T01:44:58.971Z,420.20
2019-01-18T01:45:59.448Z,420.36
2019-01-18T01:46:58.945Z,420.03
2019-01-18T01:47:58.950Z,420.06
2019-01-18T01:48:58.929Z,420.19
2019-01-18T01:49:58.913Z,419.98
2019-01-18T01:50:58.899Z,420.20
2019-01-18T01:51:58.889Z,420.32
2019-01-18T01:52:58.903Z,420.01
2019-01-18T01:53:58.863Z,420.45
2019-01-18T01:54:58.858Z,420.06
2019-01-18T01:55:58.841Z,420.15
2019-01-18T01:56:58.841Z,420.35
2019-01-18T01:57:58.847Z,420.41
2019-01-18T01:58:58.825Z,420.62
2019-01-18T01:59:58.806Z,420.24
2019-01-18T02:00:58.795Z,420.47
2019-01-18T02:01:58.779Z,420.49
2019-01-18T02:02:58.802Z,420.58
2019-01-18T02:03:58.757Z,420.46
2019-01-18T02:04:58.763Z,420.57
2019-01-18T02:05:58.739Z,420.62
2019-01-18T02:06:58.727Z,420.31
2019-01-18T02:07:58.726Z,420.75
2019-01-18T02:08:58.724Z,420.47
2019-01-18T02:09:58.699Z,420.60
2019-01-18T02:10:58.679Z,420.41
2019-01-18T02:11:58.673Z,420.60
2019-01-18T02:12:58.671Z,420.77
2019-01-18T02:13:58.672Z,420.88
2019-01-18T02:14:58.641Z,420.77
2019-01-18T02:15:58.616Z,420.52
2019-01-18T02:16:58.627Z,420.66
2019-01-18T02:17:58.596Z,420.66
2019-01-18T02:18:58.606Z,420.52
2019-01-18T02:19:58.576Z,420.89
2019-01-18T02:20:58.573Z,420.36
2019-01-18T02:21:58.557Z,420.74
2019-01-18T02:22:58.556Z,420.53
2019-01-18T02:23:58.546Z,420.77
2019-01-18T02:24:58.528Z,420.62
2019-01-18T02:25:58.514Z,420.68
2019-01-18T02:26:58.506Z,420.83
2019-01-18T02:27:58.489Z,420.91
2019-01-18T02:28:58.504Z,420.91
2019-01-18T02:29:58.464Z,420.81
2019-01-18T02:30:58.477Z,420.59
2019-01-18T02:31:58.455Z,420.75
2019-01-18T02:32:58.448Z,420.87
2019-01-18T02:33:58.441Z,420.81
2019-01-18T02:34:58.414Z,420.67
2019-01-18T02:35:58.404Z,420.65
2019-01-18T02:36:58.402Z,420.82
2019-01-18T02:37:58.392Z,420.83
2019-01-18T02:38:58.400Z,420.83
2019-01-18T02:39:58.372Z,420.88
2019-01-18T02:40:58.349Z,420.83
2019-01-18T02:41:58.346Z,420.76
2019-01-18T02:42:58.338Z,420.77
2019-01-18T02:43:58.318Z,420.89
2019-01-18T02:44:58.336Z,421.03
2019-01-18T02:45:58.309Z,420.79
2019-01-18T02:46:58.285Z,420.69
2019-01-18T02:47:58.278Z,421.02
2019-01-18T02:48:58.269Z,420.78
2019-01-18T02:49:58.288Z,420.82
2019-01-18T02:50:58.240Z,420.71
2019-01-18T02:51:58.235Z,420.83
2019-01-18T02:52:58.225Z,420.76
2019-01-18T02:53:58.209Z,420.95
2019-01-18T02:54:58.223Z,420.97
2019-01-18T02:55:58.189Z,420.58
2019-01-18T02:56:58.183Z,420.63
2019-01-18T02:57:58.161Z,420.92
2019-01-18T02:58:58.160Z,420.85
2019-01-18T03:00:04.791Z,420.84
2019-01-18T03:00:59.132Z,420.84
2019-01-18T03:01:58.117Z,420.99
2019-01-18T03:02:58.108Z,420.75
2019-01-18T03:03:58.101Z,420.83
2019-01-18T03:04:58.103Z,421.29
2019-01-18T03:05:58.083Z,420.92
2019-01-18T03:06:58.053Z,420.89
2019-01-18T03:07:58.060Z,421.04
2019-01-18T03:08:58.038Z,420.79
2019-01-18T03:09:58.043Z,420.81
2019-01-18T03:10:58.015Z,421.14
2019-01-18T03:11:58.015Z,421.01
2019-01-18T03:12:57.993Z,421.10
2019-01-18T03:13:57.990Z,420.94
2019-01-18T03:14:58.003Z,420.77
2019-01-18T03:15:57.978Z,420.94
2019-01-18T03:16:57.953Z,421.07
2019-01-18T03:17:57.950Z,421.15
2019-01-18T03:18:57.928Z,420.91
2019-01-18T03:19:57.951Z,420.99
2019-01-18T03:20:57.913Z,420.95
2019-01-18T03:21:57.898Z,421.23
2019-01-18T03:22:57.898Z,421.18
2019-01-18T03:23:57.867Z,421.02
2019-01-18T03:24:57.875Z,421.04
2019-01-18T03:25:57.873Z,421.00
2019-01-18T03:26:57.849Z,421.14
2019-01-18T03:27:57.829Z,421.09
2019-01-18T03:28:57.824Z,421.20
2019-01-18T03:29:57.812Z,420.92
2019-01-18T03:30:57.831Z,420.95
2019-01-18T03:31:57.808Z,421.17
2019-01-18T03:32:57.779Z,421.09
2019-01-18T03:33:57.771Z,421.37
2019-01-18T03:34:57.768Z,421.05
2019-01-18T03:35:57.763Z,421.08
2019-01-18T03:36:57.731Z,420.84
2019-01-18T03:37:57.724Z,421.12
2019-01-18T03:38:57.712Z,420.90
2019-01-18T03:39:57.700Z,420.89
2019-01-18T03:40:57.731Z,421.04
2019-01-18T03:41:57.687Z,420.77
2019-01-18T03:42:57.663Z,421.17
2019-01-18T03:43:57.659Z,421.05
2019-01-18T03:44:57.648Z,421.23
2019-01-18T03:45:57.660Z,421.00
2019-01-18T03:46:57.626Z,421.55
2019-01-18T03:47:57.609Z,421.13
2019-01-18T03:48:57.614Z,421.29
2019-01-18T03:49:57.596Z,420.97
2019-01-18T03:50:57.599Z,421.43
2019-01-18T03:51:57.574Z,421.26
2019-01-18T03:52:57.561Z,421.06
2019-01-18T03:53:57.546Z,421.14
2019-01-18T03:54:57.544Z,421.40
2019-01-18T03:55:57.546Z,421.44
2019-01-18T03:56:57.521Z,421.33
2019-01-18T03:57:57.530Z,421.13
2019-01-18T03:58:57.499Z,421.05
2019-01-18T03:59:57.475Z,421.19
2019-01-18T04:00:57.488Z,421.27
2019-01-18T04:01:57.462Z,420.98
2019-01-18T04:02:57.461Z,421.02
2019-01-18T04:03:57.477Z,421.21
2019-01-18T04:04:57.429Z,421.09
2019-01-18T04:05:57.444Z,421.10
2019-01-18T04:06:57.412Z,421.09
2019-01-18T04:07:57.387Z,420.72
2019-01-18T04:08:57.387Z,421.04
2019-01-18T04:09:57.377Z,421.18
2019-01-18T04:10:57.394Z,420.90
2019-01-18T04:11:57.358Z,421.16
2019-01-18T04:12:57.346Z,420.93
2019-01-18T04:13:57.330Z,420.99
2019-01-18T04:14:57.336Z,420.85
2019-01-18T04:15:57.316Z,421.11
2019-01-18T04:16:57.321Z,421.13
2019-01-18T04:17:57.279Z,420.82
2019-01-18T04:18:57.281Z,420.88
2019-01-18T04:19:57.273Z,420.80
2019-01-18T04:20:57.252Z,421.06
2019-01-18T04:21:57.252Z,420.87
2019-01-18T04:22:57.233Z,420.96
2019-01-18T04:23:57.222Z,421.04
2019-01-18T04:24:57.213Z,421.04
2019-01-18T04:25:57.207Z,420.96
2019-01-18T04:26:57.211Z,420.96
2019-01-18T04:27:57.177Z,421.12
2019-01-18T04:28:57.160Z,420.85
2019-01-18T04:29:57.154Z,420.78
2019-01-18T04:30:57.131Z,420.85
2019-01-18T04:31:57.144Z,420.92
2019-01-18T04:32:57.126Z,420.91
2019-01-18T04:33:57.107Z,420.89
2019-01-18T04:34:57.129Z,420.65
2019-01-18T04:35:57.091Z,421.07
2019-01-18T04:36:57.100Z,421.10
2019-01-18T04:37:57.064Z,421.17
2019-01-18T04:38:57.055Z,421.20
2019-01-18T04:39:57.062Z,420.94
2019-01-18T04:40:57.035Z,421.10
2019-01-18T04:41:57.068Z,421.31
2019-01-18T04:42:57.017Z,420.92
2019-01-18T04:43:57.013Z,421.21
2019-01-18T04:44:56.995Z,420.94
2019-01-18T04:45:56.996Z,421.16
2019-01-18T04:46:56.973Z,420.92
2019-01-18T04:47:56.981Z,420.95
2019-01-18T04:48:56.999Z,420.86
2019-01-18T04:49:56.929Z,421.16
2019-01-18T04:50:56.919Z,420.88
2019-01-18T04:51:56.907Z,420.84
2019-01-18T04:52:56.920Z,420.90
2019-01-18T04:53:56.906Z,420.74
2019-01-18T04:54:56.881Z,421.03
2019-01-18T04:55:56.877Z,420.89
2019-01-18T04:56:56.863Z,420.82
2019-01-18T04:57:56.875Z,421.00
2019-01-18T04:58:56.850Z,421.28
2019-01-18T04:59:56.830Z,420.76
2019-01-18T05:00:56.809Z,420.83
2019-01-18T05:01:56.812Z,421.22
2019-01-18T05:02:56.879Z,421.01
2019-01-18T05:03:56.797Z,420.96
2019-01-18T05:04:56.769Z,420.95
2019-01-18T05:05:56.756Z,420.92
2019-01-18T05:06:56.750Z,421.01
2019-01-18T05:07:56.763Z,421.01
2019-01-18T05:08:56.728Z,420.98
2019-01-18T05:09:56.723Z,420.91
2019-01-18T05:10:56.705Z,421.10
2019-01-18T05:11:56.711Z,420.91
2019-01-18T05:12:56.710Z,420.95
2019-01-18T05:13:56.697Z,420.75
2019-01-18T05:14:56.660Z,420.85
2019-01-18T05:15:56.657Z,421.25
2019-01-18T05:16:56.641Z,420.88
2019-01-18T05:17:56.644Z,421.06
2019-01-18T05:18:56.630Z,420.85
2019-01-18T05:19:56.612Z,420.98
2019-01-18T05:20:56.612Z,421.01
2019-01-18T05:21:56.586Z,421.07
2019-01-18T05:22:56.598Z,420.74
2019-01-18T05:23:56.574Z,420.94
2019-01-18T05:24:56.574Z,420.88
2019-01-18T05:25:56.549Z,420.93
2019-01-18T05:26:56.532Z,420.93
2019-01-18T05:27:56.545Z,420.90
2019-01-18T05:28:56.522Z,421.21
2019-01-18T05:29:56.504Z,420.92
2019-01-18T05:30:56.492Z,420.69
2019-01-18T05:31:56.482Z,420.89
2019-01-18T05:32:56.474Z,420.93
2019-01-18T05:33:56.481Z,420.82
2019-01-18T05:34:56.462Z,420.84
2019-01-18T05:35:56.443Z,421.13
2019-01-18T05:36:56.442Z,421.09
2019-01-18T05:37:56.419Z,420.84
2019-01-18T05:38:56.420Z,420.86
2019-01-18T05:39:56.395Z,420.88
2019-01-18T05:40:56.382Z,420.88
2019-01-18T05:41:56.370Z,421.01
2019-01-18T05:42:56.356Z,421.11
2019-01-18T05:43:56.363Z,420.97
2019-01-18T05:44:56.331Z,421.47
2019-01-18T05:45:56.343Z,420.85
2019-01-18T05:46:56.313Z,420.97
2019-01-18T05:47:56.311Z,420.97
2019-01-18T05:48:56.312Z,420.82
2019-01-18T05:49:56.286Z,421.08
2019-01-18T05:50:56.265Z,421.30
2019-01-18T05:51:56.255Z,420.68
2019-01-18T05:52:56.251Z,421.30
2019-01-18T05:53:56.263Z,420.96
2019-01-18T05:54:56.228Z,421.32
2019-01-18T05:55:56.220Z,421.08
2019-01-18T05:56:56.199Z,420.88
2019-01-18T05:57:56.186Z,421.21
2019-01-18T05:58:56.196Z,421.20
2019-01-18T05:59:56.175Z,420.97
2019-01-18T06:00:56.217Z,420.84
2019-01-18T06:01:56.154Z,421.06
2019-01-18T06:02:56.151Z,420.94
2019-01-18T06:03:56.144Z,421.01
2019-01-18T06:04:56.137Z,420.98
2019-01-18T06:05:56.101Z,420.69
2019-01-18T06:06:56.092Z,421.35
2019-01-18T06:07:56.083Z,421.04
2019-01-18T06:08:56.092Z,421.12
2019-01-18T06:09:56.055Z,420.98
2019-01-18T06:10:56.045Z,421.40
2019-01-18T06:11:56.037Z,420.92
2019-01-18T06:12:56.026Z,421.14
2019-01-18T06:13:56.013Z,421.21
2019-01-18T06:14:56.013Z,421.07
2019-01-18T06:15:56.006Z,421.20
2019-01-18T06:16:55.996Z,421.06
2019-01-18T06:17:55.975Z,421.16
2019-01-18T06:18:55.973Z,421.17
2019-01-18T06:19:55.971Z,421.15
2019-01-18T06:20:55.945Z,421.23
2019-01-18T06:21:55.935Z,421.13
2019-01-18T06:22:55.937Z,421.28
2019-01-18T06:23:55.920Z,421.01
2019-01-18T06:24:55.930Z,420.85
2019-01-18T06:25:55.899Z,421.07
2019-01-18T06:26:55.878Z,420.72
2019-01-18T06:27:55.868Z,421.00
2019-01-18T06:28:55.858Z,420.80
2019-01-18T06:29:55.873Z,421.08
2019-01-18T06:31:01.590Z,421.19
2019-01-18T06:31:56.843Z,420.89
2019-01-18T06:32:55.842Z,420.63
2019-01-18T06:33:55.799Z,421.09
2019-01-18T06:34:55.844Z,420.91
2019-01-18T06:35:55.779Z,421.03
2019-01-18T06:36:56.030Z,420.96
2019-01-18T06:37:55.754Z,420.87
2019-01-18T06:38:55.753Z,420.82
2019-01-18T06:39:55.784Z,421.01
2019-01-18T06:40:55.728Z,420.79
2019-01-18T06:41:55.713Z,421.24
2019-01-18T06:42:55.699Z,420.79
2019-01-18T06:43:55.692Z,420.61
2019-01-18T06:44:55.755Z,421.06
2019-01-18T06:45:55.680Z,420.73
2019-01-18T06:46:55.662Z,420.63
2019-01-18T06:47:55.646Z,420.83
2019-01-18T06:48:55.639Z,420.62
2019-01-18T06:49:55.655Z,420.92
2019-01-18T06:50:55.622Z,420.84
2019-01-18T06:51:55.612Z,420.83
2019-01-18T06:52:55.608Z,420.81
2019-01-18T06:53:55.584Z,420.81
2019-01-18T06:54:55.576Z,420.70
2019-01-18T06:55:55.589Z,420.67
2019-01-18T06:56:55.552Z,420.82
2019-01-18T06:57:55.548Z,420.77
2019-01-18T06:58:55.540Z,420.90
2019-01-18T06:59:55.518Z,420.70
2019-01-18T07:00:55.592Z,420.93
2019-01-18T07:01:55.496Z,420.81
2019-01-18T07:02:55.486Z,420.88
2019-01-18T07:03:55.469Z,420.73
2019-01-18T07:04:55.474Z,420.97
2019-01-18T07:05:55.475Z,421.07
2019-01-18T07:06:55.448Z,420.62
2019-01-18T07:07:55.427Z,420.72
2019-01-18T07:08:55.432Z,420.84
2019-01-18T07:09:55.403Z,420.67
2019-01-18T07:10:55.418Z,420.76
2019-01-18T07:11:55.398Z,420.79
2019-01-18T07:12:55.375Z,420.67
2019-01-18T07:13:55.364Z,420.88
2019-01-18T07:14:55.367Z,420.86
2019-01-18T07:15:55.367Z,420.90
2019-01-18T07:16:55.322Z,420.91
2019-01-18T07:17:55.324Z,420.87
2019-01-18T07:18:55.303Z,420.92
2019-01-18T07:19:55.305Z,420.87
2019-01-18T07:20:55.310Z,420.86
2019-01-18T07:21:55.279Z,420.84
2019-01-18T07:22:55.273Z,420.86
2019-01-18T07:23:55.253Z,420.77
2019-01-18T07:24:55.300Z,420.80
2019-01-18T07:25:55.247Z,421.03
2019-01-18T07:26:55.215Z,420.72
2019-01-18T07:27:55.207Z,420.76
2019-01-18T07:28:55.199Z,420.98
2019-01-18T07:29:55.185Z,420.79
2019-01-18T07:30:55.188Z,420.93
2019-01-18T07:31:55.171Z,421.08
2019-01-18T07:32:55.152Z,421.14
2019-01-18T07:33:55.138Z,420.83
2019-01-18T07:34:55.148Z,420.84
2019-01-18T07:35:55.149Z,421.02
2019-01-18T07:36:55.120Z,421.01
2019-01-18T07:37:55.118Z,421.35
2019-01-18T07:39:00.500Z,420.63
2019-01-18T07:39:56.077Z,421.00
2019-01-18T07:40:55.083Z,420.70
2019-01-18T07:41:55.057Z,420.90
2019-01-18T07:42:55.038Z,421.18
2019-01-18T07:43:55.035Z,420.98
2019-01-18T07:44:55.032Z,420.98
2019-01-18T07:45:55.049Z,420.86
2019-01-18T07:46:54.997Z,421.26
2019-01-18T07:47:54.988Z,421.01
2019-01-18T07:48:54.994Z,421.04
2019-01-18T07:49:54.965Z,420.96
2019-01-18T07:50:54.958Z,421.01
2019-01-18T07:51:54.954Z,421.15
2019-01-18T07:52:54.958Z,421.05
2019-01-18T07:53:54.939Z,421.04
2019-01-18T07:54:54.906Z,420.90
2019-01-18T07:55:54.896Z,421.04
2019-01-18T07:56:54.922Z,420.79
2019-01-18T07:57:54.896Z,420.99
2019-01-18T07:58:54.861Z,421.10
2019-01-18T07:59:54.856Z,421.01
2019-01-18T08:00:54.847Z,420.95
2019-01-18T08:01:54.859Z,420.65
2019-01-18T08:02:54.828Z,420.68
2019-01-18T08:03:54.830Z,420.99
2019-01-18T08:04:54.801Z,421.08
2019-01-18T08:05:54.787Z,420.98
2019-01-18T08:06:54.815Z,420.65
2019-01-18T08:07:54.769Z,421.06
2019-01-18T08:08:54.768Z,421.17
2019-01-18T08:09:54.748Z,420.92
2019-01-18T08:10:54.745Z,420.86
2019-01-18T08:11:54.768Z,420.84
2019-01-18T08:12:54.711Z,420.89
2019-01-18T08:13:54.701Z,420.90
2019-01-18T08:14:54.705Z,420.76
2019-01-18T08:15:54.683Z,421.15
2019-01-18T08:16:54.684Z,421.00
2019-01-18T08:17:54.691Z,421.01
2019-01-18T08:18:54.655Z,421.01
2019-01-18T08:19:54.635Z,420.82
2019-01-18T08:20:54.640Z,420.85
2019-01-18T08:21:54.617Z,421.20
2019-01-18T08:22:54.630Z,421.02
2019-01-18T08:23:54.600Z,420.94
2019-01-18T08:24:54.582Z,420.92
2019-01-18T08:25:54.583Z,421.07
2019-01-18T08:26:54.557Z,420.81
2019-01-18T08:27:54.570Z,421.17
2019-01-18T08:28:54.586Z,421.19
2019-01-18T08:29:54.529Z,421.02
2019-01-18T08:30:54.512Z,420.97
2019-01-18T08:31:54.537Z,421.01
2019-01-18T08:32:54.513Z,420.69
2019-01-18T08:33:54.487Z,420.96
2019-01-18T08:34:54.479Z,421.08
2019-01-18T08:35:54.501Z,420.88
2019-01-18T08:36:54.498Z,421.08
2019-01-18T08:37:54.462Z,420.91
2019-01-18T08:38:54.442Z,420.97
2019-01-18T08:39:54.426Z,420.98
2019-01-18T08:40:54.405Z,420.70
2019-01-18T08:41:54.393Z,421.08
2019-01-18T08:42:54.389Z,420.61
2019-01-18T08:43:54.385Z,420.95
2019-01-18T08:44:54.364Z,420.81
2019-01-18T08:45:54.363Z,420.82
2019-01-18T08:46:54.381Z,420.91
2019-01-18T08:47:54.337Z,420.84
2019-01-18T08:48:54.323Z,420.90
2019-01-18T08:49:54.308Z,420.98
2019-01-18T08:50:54.286Z,420.98
2019-01-18T08:51:54.282Z,420.85
2019-01-18T08:52:54.298Z,421.00
2019-01-18T08:53:54.260Z,420.68
2019-01-18T08:54:54.261Z,420.83
2019-01-18T08:55:54.237Z,420.73
2019-01-18T08:56:54.225Z,420.90
2019-01-18T08:57:54.251Z,421.16
2019-01-18T08:58:54.225Z,420.80
2019-01-18T08:59:54.208Z,420.74
2019-01-18T09:00:54.189Z,420.91
2019-01-18T09:01:54.179Z,420.81
2019-01-18T09:02:54.165Z,421.00
2019-01-18T09:03:54.165Z,420.87
2019-01-18T09:04:54.141Z,420.81
2019-01-18T09:05:54.131Z,421.01
2019-01-18T09:06:54.133Z,420.85
2019-01-18T09:07:55.278Z,420.84
2019-01-18T09:08:54.110Z,420.96
2019-01-18T09:09:54.091Z,420.96
2019-01-18T09:10:54.074Z,420.82
2019-01-18T09:11:54.058Z,420.97
2019-01-18T09:12:54.047Z,421.05
2019-01-18T09:13:54.055Z,420.90
2019-01-18T09:14:54.035Z,420.76
2019-01-18T09:15:54.023Z,421.04
2019-01-18T09:16:54.003Z,421.01
2019-01-18T09:17:53.997Z,420.81
2019-01-18T09:18:54.004Z,420.88
2019-01-18T09:19:53.970Z,421.01
2019-01-18T09:20:53.964Z,420.91
2019-01-18T09:21:53.959Z,421.15
2019-01-18T09:22:53.954Z,420.93
2019-01-18T09:23:53.950Z,420.83
2019-01-18T09:24:53.925Z,420.97
2019-01-18T09:25:53.915Z,420.79
2019-01-18T09:26:53.900Z,421.25
2019-01-18T09:27:53.899Z,421.11
2019-01-18T09:28:53.897Z,421.00
2019-01-18T09:29:53.876Z,420.97
2019-01-18T09:30:53.933Z,420.85
2019-01-18T09:31:53.853Z,421.13
2019-01-18T09:32:53.836Z,420.91
2019-01-18T09:33:53.845Z,420.99
2019-01-18T09:34:54.937Z,420.95
2019-01-18T09:35:53.798Z,420.92
2019-01-18T09:36:53.794Z,420.95
2019-01-18T09:37:53.783Z,421.01
2019-01-18T09:38:53.802Z,421.04
2019-01-18T09:39:53.773Z,420.91
2019-01-18T09:40:53.772Z,421.26
2019-01-18T09:41:53.733Z,421.30
2019-01-18T09:42:53.723Z,421.29
2019-01-18T09:43:53.720Z,421.02
2019-01-18T09:44:53.716Z,420.97
2019-01-18T09:45:53.708Z,421.08
2019-01-18T09:46:53.673Z,421.12
2019-01-18T09:47:53.682Z,421.08
2019-01-18T09:48:53.666Z,421.02
2019-01-18T09:49:53.669Z,420.86
2019-01-18T09:50:53.651Z,421.05
2019-01-18T09:51:53.626Z,421.06
2019-01-18T09:52:53.618Z,421.14
2019-01-18T09:53:53.612Z,421.14
2019-01-18T09:54:53.617Z,420.97
2019-01-18T09:55:53.583Z,421.04
2019-01-18T09:56:53.578Z,420.70
2019-01-18T09:57:53.554Z,421.17
2019-01-18T09:58:53.547Z,421.17
2019-01-18T09:59:53.551Z,420.91
2019-01-18T10:00:53.545Z,420.97
2019-01-18T10:01:53.516Z,421.35
2019-01-18T10:02:53.512Z,421.08
2019-01-18T10:03:53.494Z,421.34
2019-01-18T10:04:53.513Z,420.97
2019-01-18T10:05:53.469Z,421.24
2019-01-18T10:06:53.495Z,420.93
2019-01-18T10:07:53.447Z,421.32
2019-01-18T10:08:53.446Z,420.89
2019-01-18T10:09:53.459Z,420.76
2019-01-18T10:10:53.420Z,421.01
2019-01-18T10:11:53.413Z,420.90
2019-01-18T10:12:53.394Z,420.79
2019-01-18T10:13:53.385Z,420.91
2019-01-18T10:14:53.403Z,421.05
2019-01-18T10:15:53.359Z,420.59
2019-01-18T10:16:53.354Z,420.98
2019-01-18T10:17:53.341Z,421.11
2019-01-18T10:18:53.349Z,421.00
2019-01-18T10:19:53.363Z,421.02
2019-01-18T10:20:53.303Z,421.02
2019-01-18T10:21:53.333Z,420.75
2019-01-18T10:22:53.285Z,420.78
2019-01-18T10:23:53.327Z,420.60
2019-01-18T10:24:53.270Z,421.15
2019-01-18T10:25:53.279Z,420.97
2019-01-18T10:26:53.315Z,420.79
2019-01-18T10:27:53.229Z,420.85
2019-01-18T10:28:53.223Z,421.17
2019-01-18T10:29:53.205Z,420.84
2019-01-18T10:30:53.227Z,420.94
2019-01-18T10:31:56.281Z,421.10
2019-01-18T10:32:53.177Z,421.03
2019-01-18T10:33:53.165Z,421.16
2019-01-18T10:34:53.160Z,420.86
2019-01-18T10:35:53.154Z,421.06
2019-01-18T10:36:53.146Z,420.87
2019-01-18T10:37:53.121Z,421.20
2019-01-18T10:38:53.112Z,421.36
2019-01-18T10:39:53.101Z,420.97
2019-01-18T10:40:53.107Z,420.77
2019-01-18T10:41:53.090Z,421.42
2019-01-18T10:42:53.084Z,421.07
2019-01-18T10:43:53.081Z,421.12
2019-01-18T10:44:53.042Z,420.99
2019-01-18T10:45:53.045Z,420.92
2019-01-18T10:46:53.027Z,420.82
2019-01-18T10:47:53.016Z,421.10
2019-01-18T10:48:52.998Z,420.96
2019-01-18T10:49:52.984Z,420.66
2019-01-18T10:50:52.996Z,420.79
2019-01-18T10:51:52.984Z,421.23
2019-01-18T10:52:52.961Z,421.21
2019-01-18T10:53:52.945Z,421.17
2019-01-18T10:54:52.934Z,420.85
2019-01-18T10:55:52.933Z,420.71
2019-01-18T10:56:52.912Z,421.02
2019-01-18T10:57:52.910Z,420.81
2019-01-18T10:58:52.908Z,420.94
2019-01-18T10:59:52.888Z,421.06
2019-01-18T11:00:52.916Z,420.95
2019-01-18T11:01:52.858Z,421.11
2019-01-18T11:02:52.848Z,420.83
2019-01-18T11:03:52.840Z,421.03
2019-01-18T11:04:52.824Z,420.85
2019-01-18T11:05:52.834Z,420.89
2019-01-18T11:06:52.803Z,421.07
2019-01-18T11:07:52.802Z,421.05
2019-01-18T11:08:52.780Z,421.29
2019-01-18T11:09:52.777Z,420.87
2019-01-18T11:10:52.806Z,420.94
2019-01-18T11:11:52.768Z,420.65
2019-01-18T11:12:52.742Z,421.03
2019-01-18T11:13:52.727Z,421.08
2019-01-18T11:14:52.722Z,421.23
2019-01-18T11:15:52.736Z,421.00
2019-01-18T11:16:52.708Z,420.91
2019-01-18T11:17:52.680Z,420.99
2019-01-18T11:18:52.671Z,421.02
2019-01-18T11:19:52.664Z,420.76
2019-01-18T11:20:52.646Z,421.02
2019-01-18T11:21:52.667Z,420.90
2019-01-18T11:22:52.630Z,421.12
2019-01-18T11:23:52.623Z,421.18
2019-01-18T11:24:52.617Z,420.94
2019-01-18T11:25:52.584Z,421.10
2019-01-18T11:26:52.609Z,421.14
2019-01-18T11:27:52.583Z,421.22
2019-01-18T11:28:52.561Z,421.25
2019-01-18T11:29:52.549Z,421.21
2019-01-18T11:30:52.557Z,421.10
2019-01-18T11:31:52.557Z,421.03
2019-01-18T11:32:52.527Z,420.86
2019-01-18T11:33:52.501Z,420.83
2019-01-18T11:34:52.486Z,420.87
2019-01-18T11:35:52.488Z,420.88
2019-01-18T11:36:56.434Z,421.01
2019-01-18T11:37:52.471Z,421.12
2019-01-18T11:38:52.455Z,421.14
2019-01-18T11:39:52.435Z,421.09
2019-01-18T11:40:52.561Z,420.96
2019-01-18T11:41:52.500Z,421.01
2019-01-18T11:42:52.413Z,420.99
2019-01-18T11:43:52.402Z,420.91
2019-01-18T11:44:52.390Z,421.21
2019-01-18T11:45:52.401Z,421.09
2019-01-18T11:46:52.441Z,420.86
2019-01-18T11:47:52.356Z,420.89
2019-01-18T11:48:52.347Z,421.06
2019-01-18T11:49:52.334Z,420.74
2019-01-18T11:50:52.330Z,421.00
2019-01-18T11:51:52.341Z,421.31
2019-01-18T11:52:52.298Z,420.95
2019-01-18T11:53:52.292Z,421.23
2019-01-18T11:54:52.269Z,420.78
2019-01-18T11:55:52.268Z,420.88
2019-01-18T11:56:52.272Z,420.90
2019-01-18T11:57:52.242Z,420.94
2019-01-18T11:58:52.232Z,420.94
2019-01-18T11:59:52.227Z,420.87
2019-01-18T12:00:52.209Z,420.82
2019-01-18T12:01:52.229Z,420.95
2019-01-18T12:02:52.183Z,421.12
2019-01-18T12:03:52.184Z,420.81
2019-01-18T12:04:52.165Z,420.82
2019-01-18T12:05:52.158Z,420.79
2019-01-18T12:06:52.153Z,420.92
2019-01-18T12:07:52.128Z,421.03
2019-01-18T12:08:52.133Z,421.01
2019-01-18T12:09:52.111Z,421.12
2019-01-18T12:10:52.103Z,420.85
2019-01-18T12:11:52.113Z,420.90
2019-01-18T12:12:52.082Z,421.19
2019-01-18T12:13:52.063Z,420.85
2019-01-18T12:14:52.058Z,421.01
2019-01-18T12:15:52.053Z,420.80
2019-01-18T12:16:52.075Z,420.63
2019-01-18T12:17:52.024Z,420.71
2019-01-18T12:18:52.016Z,421.05
2019-01-18T12:19:51.988Z,420.85
2019-01-18T12:20:51.991Z,420.85
2019-01-18T12:21:52.022Z,420.63
2019-01-18T12:22:51.970Z,420.84
2019-01-18T12:23:51.956Z,420.92
2019-01-18T12:24:51.939Z,420.78
2019-01-18T12:25:51.944Z,421.05
2019-01-18T12:26:51.918Z,420.94
2019-01-18T12:27:51.923Z,420.63